sensor_id;sensor_type;location;lat;lon;timestamp;P1;durP1;ratioP1;P2;durP2;ratioP2
39654;SDS011;25336;59.944;11.010;2024-03-08T00:01:09;5.30;;;3.35;;
39654;SDS011;25336;59.944;11.010;2024-03-08T00:03:35;6.32;;;4.13;;
39654;SDS011;25336;59.944;11.010;2024-03-08T00:06:01;11.32;;;3.67;;
39654;SDS011;25336;59.944;11.010;2024-03-08T00:08:27;5.28;;;3.60;;
39654;SDS011;25336;59.944;11.010;2024-03-08T00:10:53;5.38;;;4.07;;
39654;SDS011;25336;59.944;11.010;2024-03-08T00:13:19;3.85;;;3.35;;
39654;SDS011;25336;59.944;11.010;2024-03-08T00:15:44;4.50;;;3.40;;
39654;SDS011;25336;59.944;11.010;2024-03-08T00:18:10;5.65;;;3.25;;
39654;SDS011;25336;59.944;11.010;2024-03-08T00:20:36;5.38;;;3.50;;
39654;SDS011;25336;59.944;11.010;2024-03-08T00:23:03;7.25;;;3.72;;
39654;SDS011;25336;59.944;11.010;2024-03-08T00:25:29;5.00;;;3.67;;
39654;SDS011;25336;59.944;11.010;2024-03-08T00:27:54;5.75;;;3.42;;
39654;SDS011;25336;59.944;11.010;2024-03-08T00:30:24;6.38;;;3.80;;
39654;SDS011;25336;59.944;11.010;2024-03-08T00:32:50;4.05;;;3.47;;
39654;SDS011;25336;59.944;11.010;2024-03-08T00:35:16;4.10;;;3.25;;
39654;SDS011;25336;59.944;11.010;2024-03-08T00:37:43;3.90;;;3.28;;
39654;SDS011;25336;59.944;11.010;2024-03-08T00:40:12;5.25;;;3.22;;
39654;SDS011;25336;59.944;11.010;2024-03-08T00:42:38;3.45;;;3.15;;
39654;SDS011;25336;59.944;11.010;2024-03-08T00:45:06;5.13;;;3.25;;
39654;SDS011;25336;59.944;11.010;2024-03-08T00:47:32;3.42;;;3.13;;
39654;SDS011;25336;59.944;11.010;2024-03-08T00:49:58;3.90;;;3.08;;
39654;SDS011;25336;59.944;11.010;2024-03-08T00:52:24;4.03;;;3.17;;
39654;SDS011;25336;59.944;11.010;2024-03-08T00:54:50;3.60;;;3.17;;
39654;SDS011;25336;59.944;11.010;2024-03-08T00:57:15;6.47;;;3.50;;
39654;SDS011;25336;59.944;11.010;2024-03-08T00:59:41;3.88;;;3.15;;
39654;SDS011;25336;59.944;11.010;2024-03-08T01:02:07;4.97;;;3.30;;
39654;SDS011;25336;59.944;11.010;2024-03-08T01:04:36;5.25;;;3.35;;
39654;SDS011;25336;59.944;11.010;2024-03-08T01:07:01;3.03;;;2.67;;
39654;SDS011;25336;59.944;11.010;2024-03-08T01:09:27;3.83;;;2.67;;
39654;SDS011;25336;59.944;11.010;2024-03-08T01:11:53;3.35;;;3.05;;
39654;SDS011;25336;59.944;11.010;2024-03-08T01:14:20;5.63;;;3.67;;
39654;SDS011;25336;59.944;11.010;2024-03-08T01:16:49;3.20;;;2.67;;
39654;SDS011;25336;59.944;11.010;2024-03-08T01:19:15;4.93;;;2.85;;
39654;SDS011;25336;59.944;11.010;2024-03-08T01:21:41;4.40;;;3.17;;
39654;SDS011;25336;59.944;11.010;2024-03-08T01:24:07;4.03;;;3.35;;
39654;SDS011;25336;59.944;11.010;2024-03-08T01:26:33;9.10;;;3.50;;
39654;SDS011;25336;59.944;11.010;2024-03-08T01:29:02;4.07;;;2.63;;
39654;SDS011;25336;59.944;11.010;2024-03-08T01:31:31;4.25;;;3.13;;
39654;SDS011;25336;59.944;11.010;2024-03-08T01:33:57;4.43;;;3.33;;
39654;SDS011;25336;59.944;11.010;2024-03-08T01:36:24;5.45;;;3.67;;
39654;SDS011;25336;59.944;11.010;2024-03-08T01:38:50;6.68;;;3.42;;
39654;SDS011;25336;59.944;11.010;2024-03-08T01:41:16;3.63;;;3.13;;
39654;SDS011;25336;59.944;11.010;2024-03-08T01:43:43;3.90;;;3.13;;
39654;SDS011;25336;59.944;11.010;2024-03-08T01:46:09;5.43;;;3.00;;
39654;SDS011;25336;59.944;11.010;2024-03-08T01:48:38;5.57;;;3.78;;
39654;SDS011;25336;59.944;11.010;2024-03-08T01:51:04;4.60;;;2.97;;
39654;SDS011;25336;59.944;11.010;2024-03-08T01:53:30;4.88;;;3.28;;
39654;SDS011;25336;59.944;11.010;2024-03-08T01:55:57;4.28;;;3.55;;
39654;SDS011;25336;59.944;11.010;2024-03-08T01:58:24;4.57;;;3.20;;
39654;SDS011;25336;59.944;11.010;2024-03-08T02:00:53;5.72;;;3.50;;
39654;SDS011;25336;59.944;11.010;2024-03-08T02:03:19;3.38;;;2.95;;
39654;SDS011;25336;59.944;11.010;2024-03-08T02:05:46;5.88;;;3.10;;
39654;SDS011;25336;59.944;11.010;2024-03-08T02:08:11;3.65;;;2.75;;
39654;SDS011;25336;59.944;11.010;2024-03-08T02:10:43;4.68;;;3.10;;
39654;SDS011;25336;59.944;11.010;2024-03-08T02:13:10;3.87;;;3.20;;
39654;SDS011;25336;59.944;11.010;2024-03-08T02:16:10;3.72;;;3.15;;
39654;SDS011;25336;59.944;11.010;2024-03-08T02:18:29;4.47;;;3.20;;
39654;SDS011;25336;59.944;11.010;2024-03-08T02:21:00;3.40;;;2.88;;
39654;SDS011;25336;59.944;11.010;2024-03-08T02:23:30;5.65;;;3.25;;
39654;SDS011;25336;59.944;11.010;2024-03-08T02:25:57;3.92;;;3.47;;
39654;SDS011;25336;59.944;11.010;2024-03-08T02:28:23;8.20;;;3.40;;
39654;SDS011;25336;59.944;11.010;2024-03-08T02:30:50;4.55;;;3.05;;
39654;SDS011;25336;59.944;11.010;2024-03-08T02:33:16;5.18;;;3.30;;
39654;SDS011;25336;59.944;11.010;2024-03-08T02:35:45;3.92;;;2.85;;
39654;SDS011;25336;59.944;11.010;2024-03-08T02:38:15;4.05;;;3.38;;
39654;SDS011;25336;59.944;11.010;2024-03-08T02:40:42;4.82;;;3.30;;
39654;SDS011;25336;59.944;11.010;2024-03-08T02:43:11;2.72;;;2.45;;
39654;SDS011;25336;59.944;11.010;2024-03-08T02:45:38;4.28;;;3.25;;
39654;SDS011;25336;59.944;11.010;2024-03-08T02:48:04;3.78;;;3.00;;
39654;SDS011;25336;59.944;11.010;2024-03-08T02:50:31;4.22;;;2.88;;
39654;SDS011;25336;59.944;11.010;2024-03-08T02:52:58;3.67;;;3.15;;
39654;SDS011;25336;59.944;11.010;2024-03-08T02:55:24;3.90;;;3.45;;
39654;SDS011;25336;59.944;11.010;2024-03-08T02:57:51;4.82;;;3.70;;
39654;SDS011;25336;59.944;11.010;2024-03-08T03:00:17;4.05;;;3.17;;
39654;SDS011;25336;59.944;11.010;2024-03-08T03:02:44;4.63;;;2.83;;
39654;SDS011;25336;59.944;11.010;2024-03-08T03:05:11;8.38;;;3.63;;
39654;SDS011;25336;59.944;11.010;2024-03-08T03:07:37;6.47;;;4.78;;
39654;SDS011;25336;59.944;11.010;2024-03-08T03:10:03;7.30;;;5.18;;
39654;SDS011;25336;59.944;11.010;2024-03-08T03:12:30;6.45;;;4.53;;
39654;SDS011;25336;59.944;11.010;2024-03-08T03:14:59;5.13;;;3.70;;
39654;SDS011;25336;59.944;11.010;2024-03-08T03:17:25;6.32;;;3.30;;
39654;SDS011;25336;59.944;11.010;2024-03-08T03:19:51;4.13;;;3.10;;
39654;SDS011;25336;59.944;11.010;2024-03-08T03:22:19;5.10;;;3.45;;
39654;SDS011;25336;59.944;11.010;2024-03-08T03:24:45;3.90;;;2.97;;
39654;SDS011;25336;59.944;11.010;2024-03-08T03:27:16;5.40;;;3.90;;
39654;SDS011;25336;59.944;11.010;2024-03-08T03:29:42;3.60;;;3.05;;
39654;SDS011;25336;59.944;11.010;2024-03-08T03:32:12;7.85;;;3.28;;
39654;SDS011;25336;59.944;11.010;2024-03-08T03:34:38;4.22;;;2.75;;
39654;SDS011;25336;59.944;11.010;2024-03-08T03:37:05;4.10;;;2.92;;
39654;SDS011;25336;59.944;11.010;2024-03-08T03:39:33;6.35;;;3.40;;
39654;SDS011;25336;59.944;11.010;2024-03-08T03:41:59;3.38;;;2.85;;
39654;SDS011;25336;59.944;11.010;2024-03-08T03:44:27;3.45;;;2.72;;
39654;SDS011;25336;59.944;11.010;2024-03-08T03:46:53;3.30;;;2.92;;
39654;SDS011;25336;59.944;11.010;2024-03-08T03:49:19;4.32;;;2.90;;
39654;SDS011;25336;59.944;11.010;2024-03-08T03:51:45;3.92;;;3.20;;
39654;SDS011;25336;59.944;11.010;2024-03-08T03:54:13;6.57;;;2.97;;
39654;SDS011;25336;59.944;11.010;2024-03-08T03:56:38;4.63;;;3.03;;
39654;SDS011;25336;59.944;11.010;2024-03-08T03:59:07;4.35;;;3.00;;
39654;SDS011;25336;59.944;11.010;2024-03-08T04:01:33;6.68;;;3.15;;
39654;SDS011;25336;59.944;11.010;2024-03-08T04:03:59;4.93;;;3.90;;
39654;SDS011;25336;59.944;11.010;2024-03-08T04:06:25;11.90;;;3.42;;
39654;SDS011;25336;59.944;11.010;2024-03-08T04:08:50;3.70;;;3.20;;
39654;SDS011;25336;59.944;11.010;2024-03-08T04:11:16;4.65;;;3.58;;
39654;SDS011;25336;59.944;11.010;2024-03-08T04:13:42;5.90;;;3.35;;
39654;SDS011;25336;59.944;11.010;2024-03-08T04:16:08;3.40;;;3.00;;
39654;SDS011;25336;59.944;11.010;2024-03-08T04:18:36;5.45;;;2.88;;
39654;SDS011;25336;59.944;11.010;2024-03-08T04:21:03;4.63;;;3.72;;
39654;SDS011;25336;59.944;11.010;2024-03-08T04:23:31;4.13;;;2.85;;
39654;SDS011;25336;59.944;11.010;2024-03-08T04:26:00;4.18;;;3.22;;
39654;SDS011;25336;59.944;11.010;2024-03-08T04:28:26;6.30;;;4.38;;
39654;SDS011;25336;59.944;11.010;2024-03-08T04:30:52;8.93;;;4.50;;
39654;SDS011;25336;59.944;11.010;2024-03-08T04:33:18;7.82;;;4.95;;
39654;SDS011;25336;59.944;11.010;2024-03-08T04:35:43;5.80;;;3.05;;
39654;SDS011;25336;59.944;11.010;2024-03-08T04:38:11;5.50;;;3.83;;
39654;SDS011;25336;59.944;11.010;2024-03-08T04:40:36;3.95;;;3.15;;
39654;SDS011;25336;59.944;11.010;2024-03-08T04:43:02;3.88;;;2.90;;
39654;SDS011;25336;59.944;11.010;2024-03-08T04:45:28;4.43;;;3.45;;
39654;SDS011;25336;59.944;11.010;2024-03-08T04:47:54;3.58;;;3.03;;
39654;SDS011;25336;59.944;11.010;2024-03-08T04:50:19;5.43;;;3.13;;
39654;SDS011;25336;59.944;11.010;2024-03-08T04:52:45;3.88;;;3.35;;
39654;SDS011;25336;59.944;11.010;2024-03-08T04:55:11;5.50;;;3.03;;
39654;SDS011;25336;59.944;11.010;2024-03-08T04:57:37;5.63;;;3.20;;
39654;SDS011;25336;59.944;11.010;2024-03-08T05:00:03;4.68;;;3.28;;
39654;SDS011;25336;59.944;11.010;2024-03-08T05:02:35;10.60;;;2.95;;
39654;SDS011;25336;59.944;11.010;2024-03-08T05:05:04;3.03;;;2.72;;
39654;SDS011;25336;59.944;11.010;2024-03-08T05:07:38;5.35;;;2.83;;
39654;SDS011;25336;59.944;11.010;2024-03-08T05:10:05;4.20;;;3.30;;
39654;SDS011;25336;59.944;11.010;2024-03-08T05:12:33;3.70;;;3.33;;
39654;SDS011;25336;59.944;11.010;2024-03-08T05:14:59;4.45;;;3.22;;
39654;SDS011;25336;59.944;11.010;2024-03-08T05:17:25;7.95;;;2.80;;
39654;SDS011;25336;59.944;11.010;2024-03-08T05:19:51;5.43;;;3.70;;
39654;SDS011;25336;59.944;11.010;2024-03-08T05:22:17;5.85;;;3.33;;
39654;SDS011;25336;59.944;11.010;2024-03-08T05:24:43;4.75;;;3.28;;
39654;SDS011;25336;59.944;11.010;2024-03-08T05:27:09;3.50;;;2.85;;
39654;SDS011;25336;59.944;11.010;2024-03-08T05:29:36;7.82;;;3.33;;
39654;SDS011;25336;59.944;11.010;2024-03-08T05:32:02;6.70;;;3.28;;
39654;SDS011;25336;59.944;11.010;2024-03-08T05:34:29;7.47;;;2.90;;
39654;SDS011;25336;59.944;11.010;2024-03-08T05:36:55;4.32;;;3.13;;
39654;SDS011;25336;59.944;11.010;2024-03-08T05:39:20;3.88;;;2.92;;
39654;SDS011;25336;59.944;11.010;2024-03-08T05:41:47;4.88;;;2.97;;
39654;SDS011;25336;59.944;11.010;2024-03-08T05:44:13;6.05;;;2.97;;
39654;SDS011;25336;59.944;11.010;2024-03-08T05:46:39;3.70;;;2.80;;
39654;SDS011;25336;59.944;11.010;2024-03-08T05:49:05;6.18;;;3.47;;
39654;SDS011;25336;59.944;11.010;2024-03-08T05:51:32;6.22;;;3.05;;
39654;SDS011;25336;59.944;11.010;2024-03-08T05:54:01;3.10;;;2.85;;
39654;SDS011;25336;59.944;11.010;2024-03-08T05:56:34;15.68;;;5.20;;
39654;SDS011;25336;59.944;11.010;2024-03-08T05:59:00;5.13;;;3.40;;
39654;SDS011;25336;59.944;11.010;2024-03-08T06:01:26;4.32;;;3.35;;
39654;SDS011;25336;59.944;11.010;2024-03-08T06:03:53;5.95;;;3.63;;
39654;SDS011;25336;59.944;11.010;2024-03-08T06:06:22;6.65;;;3.28;;
39654;SDS011;25336;59.944;11.010;2024-03-08T06:08:49;8.65;;;4.05;;
39654;SDS011;25336;59.944;11.010;2024-03-08T06:11:16;8.80;;;3.45;;
39654;SDS011;25336;59.944;11.010;2024-03-08T06:13:44;6.07;;;3.70;;
39654;SDS011;25336;59.944;11.010;2024-03-08T06:16:11;31.27;;;5.50;;
39654;SDS011;25336;59.944;11.010;2024-03-08T06:18:37;18.15;;;5.47;;
39654;SDS011;25336;59.944;11.010;2024-03-08T06:21:04;10.32;;;4.72;;
39654;SDS011;25336;59.944;11.010;2024-03-08T06:23:33;7.22;;;4.50;;
39654;SDS011;25336;59.944;11.010;2024-03-08T06:26:03;12.05;;;5.07;;
39654;SDS011;25336;59.944;11.010;2024-03-08T06:28:30;7.93;;;5.78;;
39654;SDS011;25336;59.944;11.010;2024-03-08T06:30:57;7.78;;;4.65;;
39654;SDS011;25336;59.944;11.010;2024-03-08T06:33:24;9.73;;;4.57;;
39654;SDS011;25336;59.944;11.010;2024-03-08T06:35:52;10.73;;;5.50;;
39654;SDS011;25336;59.944;11.010;2024-03-08T06:38:22;9.57;;;6.03;;
39654;SDS011;25336;59.944;11.010;2024-03-08T06:40:51;6.78;;;4.28;;
39654;SDS011;25336;59.944;11.010;2024-03-08T06:43:18;6.07;;;3.85;;
39654;SDS011;25336;59.944;11.010;2024-03-08T06:45:44;8.65;;;3.63;;
39654;SDS011;25336;59.944;11.010;2024-03-08T06:48:16;7.25;;;3.70;;
39654;SDS011;25336;59.944;11.010;2024-03-08T06:50:46;8.23;;;5.65;;
39654;SDS011;25336;59.944;11.010;2024-03-08T06:53:12;11.45;;;7.13;;
39654;SDS011;25336;59.944;11.010;2024-03-08T06:55:39;8.07;;;5.07;;
39654;SDS011;25336;59.944;11.010;2024-03-08T06:58:05;7.47;;;4.85;;
39654;SDS011;25336;59.944;11.010;2024-03-08T07:00:31;10.07;;;4.60;;
39654;SDS011;25336;59.944;11.010;2024-03-08T07:02:57;5.07;;;3.85;;
39654;SDS011;25336;59.944;11.010;2024-03-08T07:05:26;10.32;;;3.90;;
39654;SDS011;25336;59.944;11.010;2024-03-08T07:07:52;12.82;;;5.47;;
39654;SDS011;25336;59.944;11.010;2024-03-08T07:10:20;8.68;;;4.20;;
39654;SDS011;25336;59.944;11.010;2024-03-08T07:12:48;8.00;;;4.35;;
39654;SDS011;25336;59.944;11.010;2024-03-08T07:15:14;6.57;;;4.18;;
39654;SDS011;25336;59.944;11.010;2024-03-08T07:17:41;8.00;;;4.10;;
39654;SDS011;25336;59.944;11.010;2024-03-08T07:20:09;8.13;;;4.55;;
39654;SDS011;25336;59.944;11.010;2024-03-08T07:22:37;6.45;;;4.43;;
39654;SDS011;25336;59.944;11.010;2024-03-08T07:25:06;6.03;;;3.70;;
39654;SDS011;25336;59.944;11.010;2024-03-08T07:27:44;11.00;;;5.20;;
39654;SDS011;25336;59.944;11.010;2024-03-08T07:30:11;8.60;;;4.40;;
39654;SDS011;25336;59.944;11.010;2024-03-08T07:32:37;6.57;;;3.70;;
39654;SDS011;25336;59.944;11.010;2024-03-08T07:35:03;8.27;;;3.45;;
39654;SDS011;25336;59.944;11.010;2024-03-08T07:37:30;7.32;;;4.47;;
39654;SDS011;25336;59.944;11.010;2024-03-08T07:39:56;7.82;;;4.45;;
39654;SDS011;25336;59.944;11.010;2024-03-08T07:42:23;7.65;;;3.85;;
39654;SDS011;25336;59.944;11.010;2024-03-08T07:44:49;6.15;;;3.38;;
39654;SDS011;25336;59.944;11.010;2024-03-08T07:47:15;32.70;;;7.38;;
39654;SDS011;25336;59.944;11.010;2024-03-08T07:49:43;24.52;;;4.18;;
39654;SDS011;25336;59.944;11.010;2024-03-08T07:52:09;5.10;;;3.72;;
39654;SDS011;25336;59.944;11.010;2024-03-08T07:54:40;6.30;;;4.05;;
39654;SDS011;25336;59.944;11.010;2024-03-08T07:57:06;15.18;;;4.68;;
39654;SDS011;25336;59.944;11.010;2024-03-08T07:59:32;8.25;;;4.22;;
39654;SDS011;25336;59.944;11.010;2024-03-08T08:01:58;9.32;;;4.43;;
39654;SDS011;25336;59.944;11.010;2024-03-08T08:04:27;15.35;;;5.40;;
39654;SDS011;25336;59.944;11.010;2024-03-08T08:06:52;9.57;;;4.53;;
39654;SDS011;25336;59.944;11.010;2024-03-08T08:09:20;10.52;;;5.30;;
39654;SDS011;25336;59.944;11.010;2024-03-08T08:11:53;6.82;;;4.68;;
39654;SDS011;25336;59.944;11.010;2024-03-08T08:14:19;9.73;;;4.13;;
39654;SDS011;25336;59.944;11.010;2024-03-08T08:16:46;13.30;;;5.20;;
39654;SDS011;25336;59.944;11.010;2024-03-08T08:19:14;10.13;;;4.50;;
39654;SDS011;25336;59.944;11.010;2024-03-08T08:21:40;6.35;;;4.10;;
39654;SDS011;25336;59.944;11.010;2024-03-08T08:24:06;6.85;;;3.78;;
39654;SDS011;25336;59.944;11.010;2024-03-08T08:26:32;6.82;;;4.55;;
39654;SDS011;25336;59.944;11.010;2024-03-08T08:29:01;7.47;;;4.47;;
39654;SDS011;25336;59.944;11.010;2024-03-08T08:31:27;13.02;;;4.28;;
39654;SDS011;25336;59.944;11.010;2024-03-08T08:33:52;14.98;;;4.65;;
39654;SDS011;25336;59.944;11.010;2024-03-08T08:36:23;12.03;;;5.60;;
39654;SDS011;25336;59.944;11.010;2024-03-08T08:38:49;8.35;;;4.07;;
39654;SDS011;25336;59.944;11.010;2024-03-08T08:41:15;13.60;;;3.90;;
39654;SDS011;25336;59.944;11.010;2024-03-08T08:43:42;12.00;;;4.93;;
39654;SDS011;25336;59.944;11.010;2024-03-08T08:46:11;13.70;;;5.95;;
39654;SDS011;25336;59.944;11.010;2024-03-08T08:48:40;8.40;;;4.00;;
39654;SDS011;25336;59.944;11.010;2024-03-08T08:51:10;17.08;;;4.43;;
39654;SDS011;25336;59.944;11.010;2024-03-08T08:53:40;5.57;;;4.57;;
39654;SDS011;25336;59.944;11.010;2024-03-08T08:56:15;9.18;;;4.10;;
39654;SDS011;25336;59.944;11.010;2024-03-08T08:58:44;6.38;;;4.35;;
39654;SDS011;25336;59.944;11.010;2024-03-08T09:01:10;9.20;;;4.53;;
39654;SDS011;25336;59.944;11.010;2024-03-08T09:03:36;15.35;;;4.63;;
39654;SDS011;25336;59.944;11.010;2024-03-08T09:06:06;10.30;;;4.15;;
39654;SDS011;25336;59.944;11.010;2024-03-08T09:08:35;8.68;;;4.32;;
39654;SDS011;25336;59.944;11.010;2024-03-08T09:11:03;5.78;;;4.45;;
39654;SDS011;25336;59.944;11.010;2024-03-08T09:13:29;10.05;;;4.55;;
39654;SDS011;25336;59.944;11.010;2024-03-08T09:15:54;6.60;;;4.30;;
39654;SDS011;25336;59.944;11.010;2024-03-08T09:18:20;8.68;;;4.13;;
39654;SDS011;25336;59.944;11.010;2024-03-08T09:20:46;7.88;;;4.05;;
39654;SDS011;25336;59.944;11.010;2024-03-08T09:23:12;6.63;;;4.38;;
39654;SDS011;25336;59.944;11.010;2024-03-08T09:25:38;4.82;;;3.92;;
39654;SDS011;25336;59.944;11.010;2024-03-08T09:28:03;4.68;;;3.45;;
39654;SDS011;25336;59.944;11.010;2024-03-08T09:30:31;15.70;;;4.90;;
39654;SDS011;25336;59.944;11.010;2024-03-08T09:32:56;12.48;;;3.85;;
39654;SDS011;25336;59.944;11.010;2024-03-08T09:35:22;12.95;;;4.57;;
39654;SDS011;25336;59.944;11.010;2024-03-08T09:37:48;12.30;;;3.92;;
39654;SDS011;25336;59.944;11.010;2024-03-08T09:40:16;7.57;;;4.28;;
39654;SDS011;25336;59.944;11.010;2024-03-08T09:42:44;8.10;;;4.13;;
39654;SDS011;25336;59.944;11.010;2024-03-08T09:45:13;7.20;;;3.90;;
39654;SDS011;25336;59.944;11.010;2024-03-08T09:47:43;5.97;;;3.95;;
39654;SDS011;25336;59.944;11.010;2024-03-08T09:50:10;11.32;;;4.38;;
39654;SDS011;25336;59.944;11.010;2024-03-08T09:52:40;11.65;;;3.88;;
39654;SDS011;25336;59.944;11.010;2024-03-08T09:55:08;7.97;;;3.72;;
39654;SDS011;25336;59.944;11.010;2024-03-08T09:57:36;9.30;;;4.22;;
39654;SDS011;25336;59.944;11.010;2024-03-08T10:00:03;8.63;;;3.67;;
39654;SDS011;25336;59.944;11.010;2024-03-08T10:02:49;18.83;;;3.80;;
39654;SDS011;25336;59.944;11.010;2024-03-08T10:05:18;9.27;;;3.95;;
39654;SDS011;25336;59.944;11.010;2024-03-08T10:07:45;10.85;;;4.22;;
39654;SDS011;25336;59.944;11.010;2024-03-08T10:10:11;8.90;;;3.67;;
39654;SDS011;25336;59.944;11.010;2024-03-08T10:12:39;9.02;;;4.32;;
39654;SDS011;25336;59.944;11.010;2024-03-08T10:15:07;10.73;;;4.07;;
39654;SDS011;25336;59.944;11.010;2024-03-08T10:17:36;13.27;;;4.10;;
39654;SDS011;25336;59.944;11.010;2024-03-08T10:20:02;8.68;;;4.28;;
39654;SDS011;25336;59.944;11.010;2024-03-08T10:22:30;10.32;;;4.22;;
39654;SDS011;25336;59.944;11.010;2024-03-08T10:24:56;10.55;;;4.47;;
39654;SDS011;25336;59.944;11.010;2024-03-08T10:27:22;9.88;;;3.88;;
39654;SDS011;25336;59.944;11.010;2024-03-08T10:29:48;8.35;;;3.90;;
39654;SDS011;25336;59.944;11.010;2024-03-08T10:32:16;7.40;;;3.83;;
39654;SDS011;25336;59.944;11.010;2024-03-08T10:34:42;9.85;;;3.80;;
39654;SDS011;25336;59.944;11.010;2024-03-08T10:37:11;6.82;;;4.00;;
39654;SDS011;25336;59.944;11.010;2024-03-08T10:39:43;5.90;;;4.20;;
39654;SDS011;25336;59.944;11.010;2024-03-08T10:42:19;15.70;;;4.03;;
39654;SDS011;25336;59.944;11.010;2024-03-08T10:44:57;7.53;;;3.00;;
39654;SDS011;25336;59.944;11.010;2024-03-08T10:47:31;11.88;;;3.85;;
39654;SDS011;25336;59.944;11.010;2024-03-08T10:52:38;13.68;;;3.80;;
39654;SDS011;25336;59.944;11.010;2024-03-08T10:55:04;5.53;;;3.22;;
39654;SDS011;25336;59.944;11.010;2024-03-08T10:57:37;8.93;;;3.47;;
39654;SDS011;25336;59.944;11.010;2024-03-08T11:00:05;8.52;;;3.75;;
39654;SDS011;25336;59.944;11.010;2024-03-08T11:02:36;4.45;;;3.30;;
39654;SDS011;25336;59.944;11.010;2024-03-08T11:05:05;7.93;;;2.88;;
39654;SDS011;25336;59.944;11.010;2024-03-08T11:07:40;21.63;;;4.13;;
39654;SDS011;25336;59.944;11.010;2024-03-08T11:10:18;5.45;;;2.97;;
39654;SDS011;25336;59.944;11.010;2024-03-08T11:12:44;10.30;;;3.22;;
39654;SDS011;25336;59.944;11.010;2024-03-08T11:15:13;8.20;;;2.65;;
39654;SDS011;25336;59.944;11.010;2024-03-08T11:20:15;7.43;;;2.60;;
39654;SDS011;25336;59.944;11.010;2024-03-08T11:22:47;6.38;;;2.55;;
39654;SDS011;25336;59.944;11.010;2024-03-08T11:25:33;12.45;;;3.53;;
39654;SDS011;25336;59.944;11.010;2024-03-08T11:33:28;8.85;;;2.70;;
39654;SDS011;25336;59.944;11.010;2024-03-08T11:38:40;3.40;;;2.42;;
39654;SDS011;25336;59.944;11.010;2024-03-08T11:41:07;2.75;;;2.42;;
39654;SDS011;25336;59.944;11.010;2024-03-08T11:43:33;4.70;;;2.83;;
39654;SDS011;25336;59.944;11.010;2024-03-08T11:46:10;5.63;;;2.88;;
39654;SDS011;25336;59.944;11.010;2024-03-08T11:48:38;9.45;;;3.13;;
39654;SDS011;25336;59.944;11.010;2024-03-08T11:51:07;4.97;;;2.70;;
39654;SDS011;25336;59.944;11.010;2024-03-08T11:53:33;3.50;;;2.47;;
39654;SDS011;25336;59.944;11.010;2024-03-08T11:56:08;7.32;;;2.55;;
39654;SDS011;25336;59.944;11.010;2024-03-08T11:58:38;25.38;;;2.97;;
39654;SDS011;25336;59.944;11.010;2024-03-08T12:01:08;3.25;;;2.10;;
39654;SDS011;25336;59.944;11.010;2024-03-08T12:03:38;4.07;;;2.25;;
39654;SDS011;25336;59.944;11.010;2024-03-08T12:06:04;4.47;;;2.50;;
39654;SDS011;25336;59.944;11.010;2024-03-08T12:08:30;3.63;;;2.40;;
39654;SDS011;25336;59.944;11.010;2024-03-08T12:10:57;6.50;;;2.35;;
39654;SDS011;25336;59.944;11.010;2024-03-08T12:13:32;10.48;;;2.72;;
39654;SDS011;25336;59.944;11.010;2024-03-08T12:16:03;3.88;;;2.17;;
39654;SDS011;25336;59.944;11.010;2024-03-08T12:18:32;7.85;;;2.15;;
39654;SDS011;25336;59.944;11.010;2024-03-08T12:21:06;2.50;;;2.30;;
39654;SDS011;25336;59.944;11.010;2024-03-08T12:23:33;6.03;;;2.60;;
39654;SDS011;25336;59.944;11.010;2024-03-08T12:26:09;5.05;;;2.33;;
39654;SDS011;25336;59.944;11.010;2024-03-08T12:28:38;6.57;;;2.35;;
39654;SDS011;25336;59.944;11.010;2024-03-08T12:31:06;4.07;;;2.17;;
39654;SDS011;25336;59.944;11.010;2024-03-08T12:33:36;7.80;;;2.58;;
39654;SDS011;25336;59.944;11.010;2024-03-08T12:36:24;5.50;;;2.08;;
39654;SDS011;25336;59.944;11.010;2024-03-08T12:38:50;5.50;;;2.42;;
39654;SDS011;25336;59.944;11.010;2024-03-08T12:41:16;3.03;;;2.30;;
39654;SDS011;25336;59.944;11.010;2024-03-08T12:43:43;4.32;;;2.15;;
39654;SDS011;25336;59.944;11.010;2024-03-08T12:46:18;2.45;;;2.13;;
39654;SDS011;25336;59.944;11.010;2024-03-08T12:48:46;10.93;;;2.72;;
39654;SDS011;25336;59.944;11.010;2024-03-08T12:51:16;3.35;;;2.38;;
39654;SDS011;25336;59.944;11.010;2024-03-08T12:53:43;4.70;;;2.60;;
39654;SDS011;25336;59.944;11.010;2024-03-08T12:56:09;4.15;;;2.65;;
39654;SDS011;25336;59.944;11.010;2024-03-08T12:58:36;4.05;;;2.20;;
39654;SDS011;25336;59.944;11.010;2024-03-08T13:01:02;3.45;;;1.83;;
39654;SDS011;25336;59.944;11.010;2024-03-08T13:03:33;3.92;;;2.38;;
39654;SDS011;25336;59.944;11.010;2024-03-08T13:06:01;7.95;;;2.30;;
39654;SDS011;25336;59.944;11.010;2024-03-08T13:08:27;4.55;;;2.42;;
39654;SDS011;25336;59.944;11.010;2024-03-08T13:10:55;4.78;;;2.50;;
39654;SDS011;25336;59.944;11.010;2024-03-08T13:13:21;2.90;;;2.03;;
39654;SDS011;25336;59.944;11.010;2024-03-08T13:15:47;12.93;;;2.70;;
39654;SDS011;25336;59.944;11.010;2024-03-08T13:18:14;3.83;;;2.10;;
39654;SDS011;25336;59.944;11.010;2024-03-08T13:20:40;6.47;;;2.47;;
39654;SDS011;25336;59.944;11.010;2024-03-08T13:23:10;9.23;;;2.55;;
39654;SDS011;25336;59.944;11.010;2024-03-08T13:25:35;4.35;;;2.45;;
39654;SDS011;25336;59.944;11.010;2024-03-08T13:28:03;6.68;;;2.60;;
39654;SDS011;25336;59.944;11.010;2024-03-08T13:30:32;2.97;;;2.50;;
39654;SDS011;25336;59.944;11.010;2024-03-08T13:32:57;13.35;;;2.78;;
39654;SDS011;25336;59.944;11.010;2024-03-08T13:35:23;9.68;;;2.70;;
39654;SDS011;25336;59.944;11.010;2024-03-08T13:37:50;4.90;;;2.47;;
39654;SDS011;25336;59.944;11.010;2024-03-08T13:40:17;6.72;;;3.33;;
39654;SDS011;25336;59.944;11.010;2024-03-08T13:42:46;14.15;;;2.35;;
39654;SDS011;25336;59.944;11.010;2024-03-08T13:45:18;4.63;;;2.45;;
39654;SDS011;25336;59.944;11.010;2024-03-08T13:47:48;4.75;;;2.30;;
39654;SDS011;25336;59.944;11.010;2024-03-08T13:50:16;4.88;;;2.50;;
39654;SDS011;25336;59.944;11.010;2024-03-08T13:52:46;13.93;;;2.90;;
39654;SDS011;25336;59.944;11.010;2024-03-08T13:55:17;4.53;;;2.33;;
39654;SDS011;25336;59.944;11.010;2024-03-08T13:57:43;4.50;;;2.17;;
39654;SDS011;25336;59.944;11.010;2024-03-08T14:00:11;3.78;;;2.63;;
39654;SDS011;25336;59.944;11.010;2024-03-08T14:02:38;4.85;;;1.98;;
39654;SDS011;25336;59.944;11.010;2024-03-08T14:05:08;5.00;;;2.22;;
39654;SDS011;25336;59.944;11.010;2024-03-08T14:07:36;3.50;;;2.08;;
39654;SDS011;25336;59.944;11.010;2024-03-08T14:10:02;6.95;;;2.40;;
39654;SDS011;25336;59.944;11.010;2024-03-08T14:12:28;3.75;;;1.98;;
39654;SDS011;25336;59.944;11.010;2024-03-08T14:14:54;2.33;;;2.00;;
39654;SDS011;25336;59.944;11.010;2024-03-08T14:17:24;3.83;;;1.90;;
39654;SDS011;25336;59.944;11.010;2024-03-08T14:19:52;1.95;;;1.75;;
39654;SDS011;25336;59.944;11.010;2024-03-08T14:22:18;3.38;;;1.90;;
39654;SDS011;25336;59.944;11.010;2024-03-08T14:24:43;2.72;;;1.83;;
39654;SDS011;25336;59.944;11.010;2024-03-08T14:27:09;7.80;;;2.00;;
39654;SDS011;25336;59.944;11.010;2024-03-08T14:29:37;9.13;;;1.63;;
39654;SDS011;25336;59.944;11.010;2024-03-08T14:32:04;3.63;;;2.20;;
39654;SDS011;25336;59.944;11.010;2024-03-08T14:34:31;5.70;;;1.77;;
39654;SDS011;25336;59.944;11.010;2024-03-08T14:36:59;2.50;;;1.73;;
39654;SDS011;25336;59.944;11.010;2024-03-08T14:39:33;8.13;;;2.30;;
39654;SDS011;25336;59.944;11.010;2024-03-08T14:41:59;4.32;;;1.77;;
39654;SDS011;25336;59.944;11.010;2024-03-08T14:44:27;5.57;;;2.00;;
39654;SDS011;25336;59.944;11.010;2024-03-08T14:46:57;5.72;;;2.33;;
39654;SDS011;25336;59.944;11.010;2024-03-08T14:49:24;3.53;;;1.98;;